createdAt,value
2023-05-24T00:02:15.197Z,14.60
2023-05-24T00:05:01.873Z,14.37
2023-05-24T00:07:48.228Z,14.36
2023-05-24T00:10:35.432Z,14.36
2023-05-24T00:13:21.432Z,14.60
2023-05-24T00:16:07.805Z,14.40
2023-05-24T00:18:54.805Z,14.55
2023-05-24T00:21:41.107Z,14.63
2023-05-24T00:24:27.208Z,14.65
2023-05-24T00:27:14.654Z,14.63
2023-05-24T00:30:00.906Z,14.64
2023-05-24T00:32:48.297Z,14.49
2023-05-24T00:35:34.627Z,14.50
2023-05-24T00:38:21.002Z,14.65
2023-05-24T00:41:07.449Z,14.51
2023-05-24T00:43:55.779Z,14.62
2023-05-24T00:46:42.836Z,14.66
2023-05-24T00:49:29.226Z,14.58
2023-05-24T00:52:15.581Z,14.55
2023-05-24T00:55:01.627Z,14.50
2023-05-24T00:57:48.451Z,14.54
2023-05-24T01:00:36.822Z,14.85
2023-05-24T01:03:22.989Z,15.08
2023-05-24T01:06:09.751Z,14.81
2023-05-24T01:09:18.575Z,14.67
2023-05-24T01:12:15.076Z,14.57
2023-05-24T01:15:10.462Z,14.46
2023-05-24T01:18:05.926Z,14.45
2023-05-24T01:20:59.225Z,14.46
2023-05-24T01:23:48.929Z,14.37
2023-05-24T01:26:41.289Z,14.33
2023-05-24T01:29:30.427Z,14.54
2023-05-24T01:32:18.732Z,14.42
2023-05-24T01:35:06.736Z,14.64
2023-05-24T01:37:52.873Z,14.49
2023-05-24T01:40:39.418Z,14.18
2023-05-24T01:43:33.694Z,14.58
2023-05-24T01:46:28.030Z,14.12
2023-05-24T01:49:20.376Z,14.22
2023-05-24T01:52:11.087Z,14.04
2023-05-24T01:54:58.105Z,14.23
2023-05-24T01:57:46.194Z,13.93
2023-05-24T02:00:33.939Z,14.31
2023-05-24T02:03:22.285Z,14.59
2023-05-24T02:06:10.568Z,14.66
2023-05-24T02:08:58.376Z,14.80
2023-05-24T02:11:44.818Z,14.89
2023-05-24T02:14:31.565Z,14.93
2023-05-24T02:17:19.184Z,14.95
2023-05-24T02:20:08.180Z,14.93
2023-05-24T02:22:54.553Z,14.85
2023-05-24T02:25:40.887Z,14.84
2023-05-24T02:28:26.871Z,14.91
2023-05-24T02:31:13.141Z,15.04
2023-05-24T02:34:00.205Z,14.78
2023-05-24T02:36:47.710Z,14.65
2023-05-24T02:39:33.806Z,14.99
2023-05-24T02:42:19.772Z,15.08
2023-05-24T02:45:06.873Z,15.07
2023-05-24T02:47:52.981Z,15.27
2023-05-24T02:50:39.425Z,15.42
2023-05-24T02:53:26.804Z,14.97
2023-05-24T02:56:13.714Z,15.08
2023-05-24T02:59:00.447Z,14.97
2023-05-24T03:01:49.230Z,14.94
2023-05-24T03:04:35.411Z,15.00
2023-05-24T03:07:22.794Z,14.93
2023-05-24T03:10:10.873Z,14.93
2023-05-24T03:12:57.313Z,15.01
2023-05-24T03:15:43.888Z,14.95
2023-05-24T03:18:30.250Z,14.94
2023-05-24T03:21:16.431Z,14.98
2023-05-24T03:24:02.746Z,15.00
2023-05-24T03:26:50.437Z,14.91
2023-05-24T03:29:37.362Z,15.06
2023-05-24T03:32:23.753Z,15.07
2023-05-24T03:35:11.964Z,15.14
2023-05-24T03:37:58.175Z,15.09
2023-05-24T03:40:46.284Z,15.01
2023-05-24T03:43:37.614Z,15.13
2023-05-24T03:46:27.145Z,15.24
2023-05-24T03:49:14.537Z,15.52
2023-05-24T03:52:00.613Z,15.24
2023-05-24T03:54:47.472Z,15.26
2023-05-24T03:57:33.786Z,15.37
2023-05-24T04:00:21.657Z,15.31
2023-05-24T04:03:09.109Z,15.23
2023-05-24T04:05:55.935Z,15.51
2023-05-24T04:08:42.460Z,15.74
2023-05-24T04:11:29.109Z,15.72
2023-05-24T04:14:15.659Z,16.00
2023-05-24T04:17:05.704Z,15.77
2023-05-24T04:19:52.186Z,16.03
2023-05-24T04:22:38.446Z,16.29
2023-05-24T04:25:24.868Z,15.89
2023-05-24T04:28:11.085Z,16.10
2023-05-24T04:30:57.700Z,16.28
2023-05-24T04:33:45.609Z,16.29
2023-05-24T04:36:33.942Z,16.24
2023-05-24T04:39:20.029Z,16.46
2023-05-24T04:42:07.358Z,16.28
2023-05-24T04:44:53.890Z,16.43
2023-05-24T04:47:40.405Z,16.67
2023-05-24T04:50:29.621Z,16.64
2023-05-24T04:53:15.980Z,16.66
2023-05-24T04:56:02.355Z,16.59
2023-05-24T04:58:49.045Z,16.71
2023-05-24T05:01:35.641Z,16.98
2023-05-24T05:04:21.914Z,16.96
2023-05-24T05:07:10.115Z,16.96
2023-05-24T05:09:56.966Z,16.95
2023-05-24T05:12:43.127Z,17.04
2023-05-24T05:15:29.390Z,16.92
2023-05-24T05:18:16.360Z,16.79
2023-05-24T05:21:03.102Z,16.56
2023-05-24T05:23:51.107Z,16.66
2023-05-24T05:26:37.229Z,16.62
2023-05-24T05:29:24.556Z,16.64
2023-05-24T05:32:11.011Z,16.82
2023-05-24T05:34:57.495Z,16.76
2023-05-24T05:37:43.611Z,16.95
2023-05-24T05:40:31.027Z,16.90
2023-05-24T05:43:17.385Z,16.86
2023-05-24T05:46:03.927Z,16.99
2023-05-24T05:48:50.150Z,17.13
2023-05-24T05:51:37.847Z,17.19
2023-05-24T05:54:24.029Z,17.36
2023-05-24T05:57:11.726Z,17.34
2023-05-24T05:59:58.188Z,17.49
2023-05-24T06:02:44.504Z,17.66
2023-05-24T06:05:30.858Z,17.70
2023-05-24T06:08:16.952Z,17.92
2023-05-24T06:11:02.915Z,18.00
2023-05-24T06:13:50.168Z,18.27
2023-05-24T06:16:41.890Z,18.52
2023-05-24T06:19:28.610Z,18.68
2023-05-24T06:22:15.069Z,18.87
2023-05-24T06:25:01.069Z,18.80
2023-05-24T06:27:47.739Z,18.85
2023-05-24T06:30:35.573Z,19.08
2023-05-24T06:33:22.255Z,18.96
2023-05-24T06:36:08.623Z,19.30
2023-05-24T06:38:55.005Z,19.32
2023-05-24T06:41:42.258Z,19.39
2023-05-24T06:44:34.265Z,19.31
2023-05-24T06:47:22.436Z,19.49
2023-05-24T06:50:10.176Z,19.60
2023-05-24T06:52:56.510Z,19.62
2023-05-24T06:55:42.907Z,19.71
2023-05-24T06:58:29.526Z,19.60
2023-05-24T07:01:16.616Z,19.87
2023-05-24T07:04:04.197Z,20.01
2023-05-24T07:06:51.825Z,19.94
2023-05-24T07:09:37.994Z,20.08
2023-05-24T07:12:24.467Z,19.99
2023-05-24T07:15:11.358Z,20.13
2023-05-24T07:17:58.868Z,20.10
2023-05-24T07:20:46.825Z,20.01
2023-05-24T07:23:33.795Z,20.07
2023-05-24T07:26:19.808Z,20.07
2023-05-24T07:29:05.708Z,20.15
2023-05-24T07:31:51.830Z,20.42
2023-05-24T07:34:39.637Z,20.36
2023-05-24T07:37:27.539Z,20.39
2023-05-24T07:40:14.711Z,20.41
2023-05-24T07:43:01.606Z,20.45
2023-05-24T07:45:49.010Z,20.60
2023-05-24T07:48:35.191Z,20.27
2023-05-24T07:51:21.528Z,20.10
2023-05-24T07:54:08.749Z,20.30
2023-05-24T07:56:54.913Z,20.33
2023-05-24T07:59:41.027Z,20.43
2023-05-24T08:02:28.891Z,20.32
2023-05-24T08:05:16.578Z,20.03
2023-05-24T08:08:02.817Z,20.07
2023-05-24T08:10:50.006Z,20.18
2023-05-24T08:13:36.232Z,19.91
2023-05-24T08:16:22.620Z,19.83
2023-05-24T08:19:09.073Z,19.64
2023-05-24T08:21:56.750Z,19.74
2023-05-24T08:24:42.839Z,19.49
2023-05-24T08:27:30.613Z,19.65
2023-05-24T08:30:17.547Z,19.55
2023-05-24T08:33:03.630Z,19.45
2023-05-24T08:35:50.181Z,19.40
2023-05-24T08:38:36.117Z,19.28
2023-05-24T08:41:22.595Z,19.14
2023-05-24T08:44:10.935Z,19.14
2023-05-24T08:46:59.102Z,19.19
2023-05-24T08:49:46.074Z,19.03
2023-05-24T08:52:33.600Z,19.24
2023-05-24T08:55:20.681Z,19.13
2023-05-24T08:58:07.308Z,19.07
2023-05-24T09:00:55.107Z,19.28
2023-05-24T09:03:42.095Z,19.30
2023-05-24T09:06:28.669Z,19.41
2023-05-24T09:09:16.160Z,19.10
2023-05-24T09:12:06.010Z,18.98
2023-05-24T09:14:52.807Z,18.99
2023-05-24T09:17:41.480Z,18.91
2023-05-24T09:20:28.496Z,18.92
2023-05-24T09:23:15.437Z,19.02
2023-05-24T09:26:07.968Z,19.09
2023-05-24T09:28:55.979Z,18.92
2023-05-24T09:31:43.827Z,19.24
2023-05-24T09:34:39.654Z,19.32
2023-05-24T09:37:32.236Z,19.31
2023-05-24T09:40:20.831Z,19.69
2023-05-24T09:43:08.989Z,19.81
2023-05-24T09:45:56.105Z,19.90
2023-05-24T09:48:44.176Z,19.62
2023-05-24T09:51:32.382Z,19.87
2023-05-24T09:54:19.625Z,19.82
2023-05-24T09:57:06.942Z,19.75
2023-05-24T09:59:53.154Z,19.76
2023-05-24T10:02:51.862Z,19.88
2023-05-24T10:05:39.538Z,19.80
2023-05-24T10:08:27.879Z,19.89
2023-05-24T10:11:14.308Z,19.95
2023-05-24T10:14:00.494Z,19.89
2023-05-24T10:16:47.248Z,19.93
2023-05-24T10:19:34.178Z,19.81
2023-05-24T10:22:23.032Z,20.26
2023-05-24T10:25:14.607Z,19.86
2023-05-24T10:28:03.304Z,19.55
2023-05-24T10:30:58.975Z,19.73
2023-05-24T10:33:46.473Z,19.60
2023-05-24T10:36:33.943Z,19.88
2023-05-24T10:39:22.226Z,19.68
2023-05-24T10:42:10.183Z,19.50
2023-05-24T10:44:57.638Z,19.49
2023-05-24T10:47:43.738Z,19.54
2023-05-24T10:50:31.021Z,19.49
2023-05-24T10:53:18.756Z,19.72
2023-05-24T10:56:09.758Z,19.92
2023-05-24T10:59:00.939Z,19.94
2023-05-24T11:01:55.734Z,20.07
2023-05-24T11:04:44.220Z,20.16
2023-05-24T11:07:33.243Z,19.82
2023-05-24T11:10:31.137Z,20.11
2023-05-24T11:13:20.976Z,20.10
2023-05-24T11:16:08.941Z,20.04
2023-05-24T11:18:56.490Z,20.23
2023-05-24T11:21:46.021Z,20.37
2023-05-24T11:24:32.320Z,20.40
2023-05-24T11:27:18.621Z,20.43
2023-05-24T11:30:05.965Z,20.38
2023-05-24T11:32:53.505Z,20.46
2023-05-24T11:35:43.400Z,20.50
2023-05-24T11:38:30.143Z,20.65
2023-05-24T11:41:21.133Z,20.85
2023-05-24T11:44:09.341Z,21.08
2023-05-24T11:47:00.070Z,20.91
2023-05-24T11:49:52.372Z,21.18
2023-05-24T11:52:40.008Z,21.57
2023-05-24T11:55:27.168Z,21.68
2023-05-24T11:58:20.435Z,21.74
2023-05-24T12:01:06.969Z,21.72
2023-05-24T12:03:54.366Z,21.64
2023-05-24T12:06:43.402Z,21.85
2023-05-24T12:09:30.146Z,21.91
2023-05-24T12:12:16.898Z,21.98
2023-05-24T12:15:03.404Z,22.15
2023-05-24T12:17:53.739Z,22.06
2023-05-24T12:20:40.937Z,22.13
2023-05-24T12:23:31.870Z,22.33
2023-05-24T12:26:20.186Z,22.53
2023-05-24T12:29:06.980Z,22.74
2023-05-24T12:31:56.561Z,22.91
2023-05-24T12:34:43.783Z,23.05
2023-05-24T12:37:31.764Z,23.39
2023-05-24T12:40:21.395Z,23.40
2023-05-24T12:43:07.411Z,23.50
2023-05-24T12:45:54.478Z,23.79
2023-05-24T12:48:40.993Z,23.95
2023-05-24T12:51:27.212Z,24.44
2023-05-24T12:54:13.590Z,24.51
2023-05-24T12:57:02.757Z,25.29
2023-05-24T12:59:49.084Z,25.88
2023-05-24T13:02:36.112Z,26.29
2023-05-24T13:05:24.237Z,26.31
2023-05-24T13:08:10.607Z,26.44
2023-05-24T13:10:56.931Z,26.19
2023-05-24T13:13:45.935Z,26.90
2023-05-24T13:16:32.521Z,26.94
2023-05-24T13:19:18.670Z,27.25
2023-05-24T13:22:05.110Z,27.42
2023-05-24T13:24:51.356Z,27.37
2023-05-24T13:27:37.649Z,27.25
2023-05-24T13:30:28.164Z,27.22
2023-05-24T13:33:14.599Z,27.12
2023-05-24T13:36:01.752Z,27.05
2023-05-24T13:38:52.293Z,26.95
2023-05-24T13:41:43.530Z,27.05
2023-05-24T13:44:30.605Z,26.81
2023-05-24T13:47:31.017Z,26.98
2023-05-24T13:50:26.831Z,27.06
2023-05-24T13:53:13.309Z,26.73
2023-05-24T13:55:59.337Z,26.67
2023-05-24T13:58:45.927Z,26.72
2023-05-24T14:01:32.878Z,26.22
2023-05-24T14:04:20.512Z,26.54
2023-05-24T14:07:08.389Z,26.39
2023-05-24T14:09:56.149Z,26.13
2023-05-24T14:12:43.178Z,26.13
2023-05-24T14:15:29.884Z,26.01
2023-05-24T14:18:16.120Z,25.84
2023-05-24T14:21:03.600Z,25.58
2023-05-24T14:23:50.741Z,25.40
2023-05-24T14:26:36.914Z,25.22
2023-05-24T14:29:23.217Z,25.19
2023-05-24T14:32:11.407Z,25.02
2023-05-24T14:34:57.925Z,24.99
2023-05-24T14:37:45.524Z,24.83
2023-05-24T14:40:31.702Z,24.67
2023-05-24T14:43:18.288Z,24.59
2023-05-24T14:46:04.453Z,24.41
2023-05-24T14:48:50.664Z,24.30
2023-05-24T14:51:36.983Z,24.27
2023-05-24T14:54:24.768Z,24.27
2023-05-24T14:57:10.735Z,24.10
2023-05-24T14:59:57.177Z,24.17
2023-05-24T15:02:43.280Z,24.05
2023-05-24T15:05:29.623Z,24.00
2023-05-24T15:08:16.213Z,24.04
2023-05-24T15:11:03.657Z,24.20
2023-05-24T15:13:55.332Z,23.92
2023-05-24T15:16:42.364Z,24.00
2023-05-24T15:19:28.827Z,24.05
2023-05-24T15:22:15.101Z,24.14
2023-05-24T15:25:01.346Z,24.05
2023-05-24T15:27:48.630Z,24.03
2023-05-24T15:30:34.824Z,23.92
2023-05-24T15:33:21.232Z,24.06
2023-05-24T15:36:08.296Z,24.22
2023-05-24T15:38:54.758Z,24.27
2023-05-24T15:41:41.279Z,24.34
2023-05-24T15:44:28.932Z,24.30
2023-05-24T15:47:14.831Z,24.34
2023-05-24T15:50:01.136Z,24.32
2023-05-24T15:52:47.747Z,24.19
2023-05-24T15:55:33.791Z,24.18
2023-05-24T15:58:19.933Z,24.27
2023-05-24T16:01:07.645Z,24.23
2023-05-24T16:03:54.119Z,24.24
2023-05-24T16:06:40.291Z,24.26
2023-05-24T16:09:26.354Z,24.04
2023-05-24T16:12:12.752Z,23.99
2023-05-24T16:15:00.590Z,23.96
2023-05-24T16:17:48.343Z,23.70
2023-05-24T16:20:34.771Z,23.68
2023-05-24T16:23:22.858Z,23.78
2023-05-24T16:26:09.424Z,23.85
2023-05-24T16:28:55.638Z,23.67
2023-05-24T16:31:42.015Z,23.55
2023-05-24T16:34:29.803Z,23.59
2023-05-24T16:37:15.807Z,23.48
2023-05-24T16:40:01.727Z,23.33
2023-05-24T16:42:49.845Z,23.24
2023-05-24T16:45:36.303Z,23.35
2023-05-24T16:48:28.088Z,23.30
2023-05-24T16:51:16.472Z,23.29
2023-05-24T16:54:02.737Z,23.15
2023-05-24T16:56:49.025Z,23.12
2023-05-24T16:59:35.029Z,23.07
2023-05-24T17:02:21.837Z,23.03
2023-05-24T17:05:08.920Z,22.97
2023-05-24T17:07:57.070Z,22.92
2023-05-24T17:10:44.061Z,22.81
2023-05-24T17:13:30.558Z,22.77
2023-05-24T17:16:16.808Z,22.63
2023-05-24T17:19:03.490Z,22.78
2023-05-24T17:21:50.133Z,22.64
2023-05-24T17:24:37.515Z,22.73
2023-05-24T17:27:23.848Z,22.47
2023-05-24T17:30:10.413Z,22.41
2023-05-24T17:32:56.863Z,22.60
2023-05-24T17:35:43.255Z,22.66
2023-05-24T17:38:29.685Z,22.71
2023-05-24T17:41:17.409Z,22.72
2023-05-24T17:44:04.709Z,22.72
2023-05-24T17:46:50.814Z,22.68
2023-05-24T17:49:36.982Z,22.55
2023-05-24T17:52:22.958Z,22.73
2023-05-24T17:55:10.656Z,22.78
2023-05-24T17:57:58.390Z,22.84
2023-05-24T18:00:44.698Z,22.66
2023-05-24T18:03:31.960Z,22.59
2023-05-24T18:06:17.875Z,22.54
2023-05-24T18:09:05.108Z,22.38
2023-05-24T18:11:51.576Z,22.30
2023-05-24T18:14:39.244Z,22.33
2023-05-24T18:17:27.173Z,22.20
2023-05-24T18:20:15.251Z,22.17
2023-05-24T18:23:01.442Z,22.21
2023-05-24T18:25:48.904Z,22.18
2023-05-24T18:28:36.767Z,22.08
2023-05-24T18:31:24.340Z,21.97
2023-05-24T18:34:10.237Z,21.90
2023-05-24T18:36:56.476Z,21.93
2023-05-24T18:39:42.642Z,21.85
2023-05-24T18:42:28.699Z,21.76
2023-05-24T18:45:14.766Z,21.65
2023-05-24T18:48:02.113Z,21.67
2023-05-24T18:50:49.937Z,21.63
2023-05-24T18:53:36.907Z,21.81
2023-05-24T18:56:23.165Z,21.82
2023-05-24T18:59:11.623Z,21.70
2023-05-24T19:01:59.138Z,21.67
2023-05-24T19:04:48.300Z,21.73
2023-05-24T19:07:35.152Z,21.62
2023-05-24T19:10:21.092Z,21.56
2023-05-24T19:13:07.563Z,21.53
2023-05-24T19:15:53.639Z,21.56
2023-05-24T19:18:40.609Z,21.46
2023-05-24T19:21:29.141Z,21.38
2023-05-24T19:24:15.768Z,21.37
2023-05-24T19:27:02.213Z,21.34
2023-05-24T19:29:48.471Z,21.31
2023-05-24T19:32:35.625Z,21.26
2023-05-24T19:35:22.033Z,21.30
2023-05-24T19:38:09.628Z,21.33
2023-05-24T19:40:55.758Z,21.33
2023-05-24T19:43:42.080Z,21.12
2023-05-24T19:46:28.898Z,21.14
2023-05-24T19:49:15.177Z,21.09
2023-05-24T19:52:01.067Z,21.04
2023-05-24T19:54:48.718Z,21.07
2023-05-24T19:57:34.829Z,20.94
2023-05-24T20:00:21.173Z,20.78
2023-05-24T20:03:07.430Z,20.73
2023-05-24T20:05:53.638Z,20.69
2023-05-24T20:08:39.696Z,20.70
2023-05-24T20:11:28.046Z,20.63
2023-05-24T20:14:14.562Z,20.65
2023-05-24T20:17:01.212Z,20.59
2023-05-24T20:19:47.509Z,20.38
2023-05-24T20:22:33.615Z,20.29
2023-05-24T20:25:20.183Z,20.19
2023-05-24T20:28:15.452Z,20.21
2023-05-24T20:31:08.259Z,20.07
2023-05-24T20:33:54.348Z,19.97
2023-05-24T20:36:43.393Z,19.96
2023-05-24T20:39:30.155Z,19.87
2023-05-24T20:42:16.551Z,19.75
2023-05-24T20:45:05.059Z,19.69
2023-05-24T20:47:51.487Z,19.75
2023-05-24T20:50:37.873Z,19.57
2023-05-24T20:53:24.357Z,19.51
2023-05-24T20:56:10.712Z,19.38
2023-05-24T20:58:59.785Z,19.31
2023-05-24T21:01:47.550Z,19.46
2023-05-24T21:04:33.941Z,19.66
2023-05-24T21:07:20.431Z,19.52
2023-05-24T21:10:07.628Z,19.41
2023-05-24T21:12:54.038Z,19.50
2023-05-24T21:15:40.058Z,19.20
2023-05-24T21:18:27.531Z,19.11
2023-05-24T21:21:13.771Z,19.04
2023-05-24T21:24:00.215Z,18.97
2023-05-24T21:26:46.295Z,18.88
2023-05-24T21:29:32.281Z,18.87
2023-05-24T21:32:18.209Z,18.68
2023-05-24T21:35:06.367Z,18.75
2023-05-24T21:37:53.057Z,18.51
2023-05-24T21:40:39.343Z,18.40
2023-05-24T21:43:25.424Z,18.48
2023-05-24T21:46:11.468Z,18.42
2023-05-24T21:48:57.981Z,18.55
2023-05-24T21:51:45.418Z,18.67
2023-05-24T21:54:31.496Z,18.62
2023-05-24T21:57:17.552Z,18.37
2023-05-24T22:00:04.414Z,18.25
2023-05-24T22:02:51.613Z,18.08
2023-05-24T22:05:37.638Z,17.93
2023-05-24T22:08:25.008Z,17.94
2023-05-24T22:11:10.947Z,18.07
2023-05-24T22:13:57.241Z,17.91
2023-05-24T22:16:43.618Z,17.88
2023-05-24T22:19:39.996Z,17.80
2023-05-24T22:22:28.379Z,17.74
2023-05-24T22:25:17.548Z,17.73
2023-05-24T22:28:03.792Z,17.72
2023-05-24T22:30:49.794Z,17.66
2023-05-24T22:33:35.882Z,17.74
2023-05-24T22:36:22.154Z,17.57
2023-05-24T22:39:08.151Z,17.57
2023-05-24T22:41:55.732Z,17.47
2023-05-24T22:44:41.828Z,17.39
2023-05-24T22:47:28.701Z,17.25
2023-05-24T22:50:14.943Z,17.26
2023-05-24T22:53:00.874Z,17.24
2023-05-24T22:55:46.916Z,17.19
2023-05-24T22:58:34.697Z,17.09
2023-05-24T23:01:21.341Z,17.05
2023-05-24T23:04:20.484Z,17.06
2023-05-24T23:07:07.592Z,17.05
2023-05-24T23:09:54.692Z,16.93
2023-05-24T23:12:42.143Z,16.97
2023-05-24T23:15:31.844Z,16.94
2023-05-24T23:18:22.108Z,17.00
2023-05-24T23:21:10.030Z,16.90
2023-05-24T23:23:56.905Z,16.85
2023-05-24T23:26:43.062Z,16.90
2023-05-24T23:29:29.188Z,16.81
2023-05-24T23:32:16.731Z,16.59
2023-05-24T23:35:02.867Z,16.51
2023-05-24T23:37:48.800Z,16.42
2023-05-24T23:40:36.326Z,16.30
2023-05-24T23:43:22.685Z,16.38
2023-05-24T23:46:08.568Z,16.36
2023-05-24T23:48:56.126Z,16.39
2023-05-24T23:51:42.463Z,16.33
2023-05-24T23:54:28.600Z,16.23
2023-05-24T23:57:14.761Z,16.23
